sensor_id;sensor_type;location;lat;lon;timestamp;pressure;altitude;pressure_sealevel;temperature;humidity
23170;BME280;11753;43.144;24.714;2023-04-04T00:00:43;98403.44;;;10.56;100.00
23170;BME280;11753;43.144;24.714;2023-04-04T00:01:43;98407.25;;;10.54;100.00
23170;BME280;11753;43.144;24.714;2023-04-04T00:02:44;98406.78;;;10.50;100.00
23170;BME280;11753;43.144;24.714;2023-04-04T00:03:45;98403.53;;;10.48;100.00
23170;BME280;11753;43.144;24.714;2023-04-04T00:04:51;98408.50;;;10.28;100.00
23170;BME280;11753;43.144;24.714;2023-04-04T00:05:52;98408.06;;;10.25;100.00
23170;BME280;11753;43.144;24.714;2023-04-04T00:06:53;98395.41;;;10.20;100.00
23170;BME280;11753;43.144;24.714;2023-04-04T00:07:54;98396.00;;;10.30;100.00
23170;BME280;11753;43.144;24.714;2023-04-04T00:08:55;98396.63;;;10.32;100.00
23170;BME280;11753;43.144;24.714;2023-04-04T00:09:57;98392.72;;;10.28;100.00
23170;BME280;11753;43.144;24.714;2023-04-04T00:10:58;98399.03;;;10.19;100.00
23170;BME280;11753;43.144;24.714;2023-04-04T00:12:00;98399.75;;;10.13;100.00
23170;BME280;11753;43.144;24.714;2023-04-04T00:13:01;98398.03;;;10.20;100.00
23170;BME280;11753;43.144;24.714;2023-04-04T00:14:02;98393.72;;;10.27;100.00
23170;BME280;11753;43.144;24.714;2023-04-04T00:15:05;98400.00;;;10.26;100.00
23170;BME280;11753;43.144;24.714;2023-04-04T00:16:06;98403.25;;;10.28;100.00
23170;BME280;11753;43.144;24.714;2023-04-04T00:17:07;98397.16;;;10.28;100.00
23170;BME280;11753;43.144;24.714;2023-04-04T00:18:07;98392.38;;;10.31;100.00
23170;BME280;11753;43.144;24.714;2023-04-04T00:19:08;98399.66;;;10.29;100.00
23170;BME280;11753;43.144;24.714;2023-04-04T00:20:13;98393.44;;;10.22;100.00
23170;BME280;11753;43.144;24.714;2023-04-04T00:21:14;98383.28;;;10.19;100.00
23170;BME280;11753;43.144;24.714;2023-04-04T00:22:15;98380.94;;;10.24;100.00
23170;BME280;11753;43.144;24.714;2023-04-04T00:23:17;98377.00;;;10.20;100.00
23170;BME280;11753;43.144;24.714;2023-04-04T00:24:19;98369.59;;;10.09;100.00
23170;BME280;11753;43.144;24.714;2023-04-04T00:25:20;98372.41;;;10.22;100.00
23170;BME280;11753;43.144;24.714;2023-04-04T00:26:24;98366.44;;;10.28;100.00
23170;BME280;11753;43.144;24.714;2023-04-04T00:27:28;98366.72;;;10.33;100.00
23170;BME280;11753;43.144;24.714;2023-04-04T00:28:29;98371.53;;;10.44;100.00
23170;BME280;11753;43.144;24.714;2023-04-04T00:29:31;98361.53;;;10.40;100.00
23170;BME280;11753;43.144;24.714;2023-04-04T00:30:35;98364.97;;;10.40;100.00
23170;BME280;11753;43.144;24.714;2023-04-04T00:31:36;98364.97;;;10.40;100.00
23170;BME280;11753;43.144;24.714;2023-04-04T00:32:37;98363.97;;;10.41;100.00
23170;BME280;11753;43.144;24.714;2023-04-04T00:33:37;98354.94;;;10.44;100.00
23170;BME280;11753;43.144;24.714;2023-04-04T00:34:38;98359.19;;;10.30;100.00
23170;BME280;11753;43.144;24.714;2023-04-04T00:35:39;98359.19;;;10.45;100.00
23170;BME280;11753;43.144;24.714;2023-04-04T00:36:39;98355.97;;;10.50;100.00
23170;BME280;11753;43.144;24.714;2023-04-04T00:37:41;98357.88;;;10.56;100.00
23170;BME280;11753;43.144;24.714;2023-04-04T00:38:44;98356.34;;;10.61;100.00
23170;BME280;11753;43.144;24.714;2023-04-04T00:39:45;98353.63;;;10.55;100.00
23170;BME280;11753;43.144;24.714;2023-04-04T00:40:48;98345.72;;;10.55;100.00
23170;BME280;11753;43.144;24.714;2023-04-04T00:41:51;98346.34;;;10.57;100.00
23170;BME280;11753;43.144;24.714;2023-04-04T00:42:52;98354.19;;;10.65;100.00
23170;BME280;11753;43.144;24.714;2023-04-04T00:43:54;98360.41;;;10.64;100.00
23170;BME280;11753;43.144;24.714;2023-04-04T00:44:55;98355.53;;;10.61;100.00
23170;BME280;11753;43.144;24.714;2023-04-04T00:45:55;98355.91;;;10.58;100.00
23170;BME280;11753;43.144;24.714;2023-04-04T00:46:56;98351.81;;;10.55;100.00
23170;BME280;11753;43.144;24.714;2023-04-04T00:47:57;98346.19;;;10.58;100.00
23170;BME280;11753;43.144;24.714;2023-04-04T00:48:58;98347.09;;;10.65;100.00
23170;BME280;11753;43.144;24.714;2023-04-04T00:49:59;98349.88;;;10.64;100.00
23170;BME280;11753;43.144;24.714;2023-04-04T00:51:01;98349.53;;;10.67;100.00
23170;BME280;11753;43.144;24.714;2023-04-04T00:52:02;98350.78;;;10.71;100.00
23170;BME280;11753;43.144;24.714;2023-04-04T00:53:06;98344.34;;;10.73;100.00
23170;BME280;11753;43.144;24.714;2023-04-04T00:54:07;98349.22;;;10.77;100.00
23170;BME280;11753;43.144;24.714;2023-04-04T00:55:08;98357.25;;;10.68;100.00
23170;BME280;11753;43.144;24.714;2023-04-04T00:56:09;98357.44;;;10.67;100.00
23170;BME280;11753;43.144;24.714;2023-04-04T00:57:11;98351.25;;;10.74;100.00
23170;BME280;11753;43.144;24.714;2023-04-04T00:58:12;98355.69;;;10.74;100.00
23170;BME280;11753;43.144;24.714;2023-04-04T00:59:13;98355.22;;;10.70;100.00
23170;BME280;11753;43.144;24.714;2023-04-04T01:00:15;98348.97;;;10.71;100.00
23170;BME280;11753;43.144;24.714;2023-04-04T01:01:17;98354.88;;;10.73;100.00
23170;BME280;11753;43.144;24.714;2023-04-04T01:02:18;98357.00;;;10.85;100.00
23170;BME280;11753;43.144;24.714;2023-04-04T01:03:18;98353.56;;;10.84;100.00
23170;BME280;11753;43.144;24.714;2023-04-04T01:04:19;98354.22;;;10.86;100.00
23170;BME280;11753;43.144;24.714;2023-04-04T01:05:20;98349.31;;;10.83;100.00
23170;BME280;11753;43.144;24.714;2023-04-04T01:06:21;98351.94;;;10.83;100.00
23170;BME280;11753;43.144;24.714;2023-04-04T01:07:22;98350.94;;;10.84;100.00
23170;BME280;11753;43.144;24.714;2023-04-04T01:08:25;98354.22;;;10.86;100.00
23170;BME280;11753;43.144;24.714;2023-04-04T01:09:26;98353.75;;;10.83;100.00
23170;BME280;11753;43.144;24.714;2023-04-04T01:10:29;98349.84;;;10.79;100.00
23170;BME280;11753;43.144;24.714;2023-04-04T01:11:30;98360.06;;;10.67;100.00
23170;BME280;11753;43.144;24.714;2023-04-04T01:12:31;98349.63;;;10.73;100.00
23170;BME280;11753;43.144;24.714;2023-04-04T01:13:33;98354.50;;;10.77;100.00
23170;BME280;11753;43.144;24.714;2023-04-04T01:14:35;98356.69;;;10.73;100.00
23170;BME280;11753;43.144;24.714;2023-04-04T01:15:36;98349.63;;;10.73;100.00
23170;BME280;11753;43.144;24.714;2023-04-04T01:16:37;98343.16;;;10.76;100.00
23170;BME280;11753;43.144;24.714;2023-04-04T01:17:39;98345.44;;;10.64;100.00
23170;BME280;11753;43.144;24.714;2023-04-04T01:18:41;98339.91;;;10.74;100.00
23170;BME280;11753;43.144;24.714;2023-04-04T01:19:59;98344.91;;;10.69;100.00
23170;BME280;11753;43.144;24.714;2023-04-04T01:21:09;98339.63;;;10.69;100.00
23170;BME280;11753;43.144;24.714;2023-04-04T01:22:11;98337.72;;;10.63;100.00
23170;BME280;11753;43.144;24.714;2023-04-04T01:23:14;98337.38;;;10.66;100.00
23170;BME280;11753;43.144;24.714;2023-04-04T01:24:17;98330.53;;;10.71;100.00
23170;BME280;11753;43.144;24.714;2023-04-04T01:25:28;98326.03;;;10.65;100.00
23170;BME280;11753;43.144;24.714;2023-04-04T01:26:31;98330.72;;;10.70;100.00
23170;BME280;11753;43.144;24.714;2023-04-04T01:27:33;98320.47;;;10.75;100.00
23170;BME280;11753;43.144;24.714;2023-04-04T01:28:34;98324.19;;;10.81;100.00
23170;BME280;11753;43.144;24.714;2023-04-04T01:29:35;98322.47;;;10.73;100.00
23170;BME280;11753;43.144;24.714;2023-04-04T01:30:36;98321.22;;;10.69;100.00
23170;BME280;11753;43.144;24.714;2023-04-04T01:31:44;98326.56;;;10.75;100.00
23170;BME280;11753;43.144;24.714;2023-04-04T01:32:52;98315.75;;;10.70;100.00
23170;BME280;11753;43.144;24.714;2023-04-04T01:34:30;98316.84;;;10.76;100.00
23170;BME280;11753;43.144;24.714;2023-04-04T01:37:08;98308.78;;;10.63;100.00
23170;BME280;11753;43.144;24.714;2023-04-04T01:38:17;98310.69;;;10.69;100.00
23170;BME280;11753;43.144;24.714;2023-04-04T01:39:25;98317.56;;;10.70;100.00
23170;BME280;11753;43.144;24.714;2023-04-04T01:40:31;98311.41;;;10.63;100.00
23170;BME280;11753;43.144;24.714;2023-04-04T01:41:38;98313.03;;;10.64;100.00
23170;BME280;11753;43.144;24.714;2023-04-04T01:42:39;98314.69;;;10.65;100.00
23170;BME280;11753;43.144;24.714;2023-04-04T01:43:44;98312.06;;;10.65;100.00
23170;BME280;11753;43.144;24.714;2023-04-04T01:44:46;98307.44;;;10.67;100.00
23170;BME280;11753;43.144;24.714;2023-04-04T01:45:48;98311.00;;;10.59;100.00
23170;BME280;11753;43.144;24.714;2023-04-04T01:46:55;98301.50;;;10.43;100.00
23170;BME280;11753;43.144;24.714;2023-04-04T01:47:56;98298.22;;;10.41;100.00
23170;BME280;11753;43.144;24.714;2023-04-04T01:48:57;98302.66;;;10.41;100.00
23170;BME280;11753;43.144;24.714;2023-04-04T01:49:58;98309.13;;;10.38;100.00
23170;BME280;11753;43.144;24.714;2023-04-04T01:51:00;98314.81;;;10.42;100.00
23170;BME280;11753;43.144;24.714;2023-04-04T01:52:02;98313.66;;;10.44;100.00
23170;BME280;11753;43.144;24.714;2023-04-04T01:53:03;98311.25;;;10.50;100.00
23170;BME280;11753;43.144;24.714;2023-04-04T01:54:04;98301.94;;;10.47;100.00
23170;BME280;11753;43.144;24.714;2023-04-04T01:55:05;98305.66;;;10.53;100.00
23170;BME280;11753;43.144;24.714;2023-04-04T01:56:06;98294.38;;;10.59;100.00
23170;BME280;11753;43.144;24.714;2023-04-04T01:57:07;98302.63;;;10.56;100.00
23170;BME280;11753;43.144;24.714;2023-04-04T01:58:08;98295.75;;;10.55;100.00
23170;BME280;11753;43.144;24.714;2023-04-04T01:59:08;98296.00;;;10.60;100.00
23170;BME280;11753;43.144;24.714;2023-04-04T02:00:10;98287.13;;;10.61;100.00
23170;BME280;11753;43.144;24.714;2023-04-04T02:01:10;98293.50;;;10.52;100.00
23170;BME280;11753;43.144;24.714;2023-04-04T02:02:11;98294.50;;;10.51;100.00
23170;BME280;11753;43.144;24.714;2023-04-04T02:03:12;98291.09;;;10.57;100.00
23170;BME280;11753;43.144;24.714;2023-04-04T02:04:13;98290.91;;;10.37;100.00
23170;BME280;11753;43.144;24.714;2023-04-04T02:05:14;98290.59;;;10.46;100.00
23170;BME280;11753;43.144;24.714;2023-04-04T02:06:15;98285.75;;;10.50;100.00
23170;BME280;11753;43.144;24.714;2023-04-04T02:07:16;98288.47;;;10.57;100.00
23170;BME280;11753;43.144;24.714;2023-04-04T02:08:17;98287.03;;;10.54;100.00
23170;BME280;11753;43.144;24.714;2023-04-04T02:09:18;98295.00;;;10.61;100.00
23170;BME280;11753;43.144;24.714;2023-04-04T02:10:20;98289.59;;;10.47;100.00
23170;BME280;11753;43.144;24.714;2023-04-04T02:11:21;98283.31;;;10.48;100.00
23170;BME280;11753;43.144;24.714;2023-04-04T02:12:22;98293.34;;;10.38;100.00
23170;BME280;11753;43.144;24.714;2023-04-04T02:13:22;98291.53;;;10.24;100.00
23170;BME280;11753;43.144;24.714;2023-04-04T02:14:23;98288.41;;;10.35;100.00
23170;BME280;11753;43.144;24.714;2023-04-04T02:15:24;98288.16;;;10.45;100.00
23170;BME280;11753;43.144;24.714;2023-04-04T02:16:26;98289.25;;;10.51;100.00
23170;BME280;11753;43.144;24.714;2023-04-04T02:17:27;98292.50;;;10.53;100.00
23170;BME280;11753;43.144;24.714;2023-04-04T02:18:28;98281.34;;;10.51;100.00
23170;BME280;11753;43.144;24.714;2023-04-04T02:19:29;98283.72;;;10.45;100.00
23170;BME280;11753;43.144;24.714;2023-04-04T02:20:30;98293.50;;;10.52;100.00
23170;BME280;11753;43.144;24.714;2023-04-04T02:21:31;98276.44;;;10.47;100.00
23170;BME280;11753;43.144;24.714;2023-04-04T02:22:32;98280.34;;;10.52;100.00
23170;BME280;11753;43.144;24.714;2023-04-04T02:23:32;98283.78;;;10.52;100.00
23170;BME280;11753;43.144;24.714;2023-04-04T02:24:33;98282.81;;;10.38;100.00
23170;BME280;11753;43.144;24.714;2023-04-04T02:25:34;98273.03;;;10.32;100.00
23170;BME280;11753;43.144;24.714;2023-04-04T02:26:35;98277.38;;;10.25;100.00
23170;BME280;11753;43.144;24.714;2023-04-04T02:27:36;98278.91;;;10.34;100.00
23170;BME280;11753;43.144;24.714;2023-04-04T02:28:37;98272.41;;;10.30;100.00
23170;BME280;11753;43.144;24.714;2023-04-04T02:29:37;98274.56;;;10.27;100.00
23170;BME280;11753;43.144;24.714;2023-04-04T02:30:38;98275.38;;;10.27;100.00
23170;BME280;11753;43.144;24.714;2023-04-04T02:31:39;98276.66;;;10.31;100.00
23170;BME280;11753;43.144;24.714;2023-04-04T02:32:40;98271.91;;;10.41;100.00
23170;BME280;11753;43.144;24.714;2023-04-04T02:33:42;98272.56;;;10.43;100.00
23170;BME280;11753;43.144;24.714;2023-04-04T02:34:43;98273.44;;;10.51;100.00
23170;BME280;11753;43.144;24.714;2023-04-04T02:35:44;98284.22;;;10.56;100.00
23170;BME280;11753;43.144;24.714;2023-04-04T02:36:46;98275.06;;;10.52;100.00
23170;BME280;11753;43.144;24.714;2023-04-04T02:37:47;98276.50;;;10.54;100.00
23170;BME280;11753;43.144;24.714;2023-04-04T02:38:48;98271.56;;;10.44;100.00
23170;BME280;11753;43.144;24.714;2023-04-04T02:39:49;98270.44;;;10.54;100.00
23170;BME280;11753;43.144;24.714;2023-04-04T02:40:50;98278.22;;;10.62;100.00
23170;BME280;11753;43.144;24.714;2023-04-04T02:41:51;98281.47;;;10.64;100.00
23170;BME280;11753;43.144;24.714;2023-04-04T02:42:51;98276.28;;;10.70;100.00
23170;BME280;11753;43.144;24.714;2023-04-04T02:43:52;98274.72;;;10.76;100.00
23170;BME280;11753;43.144;24.714;2023-04-04T02:44:53;98270.66;;;10.73;100.00
23170;BME280;11753;43.144;24.714;2023-04-04T02:45:54;98273.53;;;10.79;100.00
23170;BME280;11753;43.144;24.714;2023-04-04T02:46:55;98282.19;;;10.72;100.00
23170;BME280;11753;43.144;24.714;2023-04-04T02:47:57;98274.97;;;10.60;100.00
23170;BME280;11753;43.144;24.714;2023-04-04T02:48:58;98279.34;;;10.53;100.00
23170;BME280;11753;43.144;24.714;2023-04-04T02:50:01;98281.34;;;10.51;100.00
23170;BME280;11753;43.144;24.714;2023-04-04T02:51:02;98282.97;;;10.52;100.00
23170;BME280;11753;43.144;24.714;2023-04-04T02:52:03;98278.94;;;10.56;100.00
23170;BME280;11753;43.144;24.714;2023-04-04T02:53:05;98273.56;;;10.64;100.00
23170;BME280;11753;43.144;24.714;2023-04-04T02:54:06;98278.41;;;10.60;100.00
23170;BME280;11753;43.144;24.714;2023-04-04T02:55:07;98267.84;;;10.75;100.00
23170;BME280;11753;43.144;24.714;2023-04-04T02:56:08;98277.22;;;10.63;100.00
23170;BME280;11753;43.144;24.714;2023-04-04T02:57:09;98275.47;;;10.70;100.00
23170;BME280;11753;43.144;24.714;2023-04-04T02:58:10;98270.44;;;10.54;100.00
23170;BME280;11753;43.144;24.714;2023-04-04T02:59:10;98280.66;;;10.63;100.00
23170;BME280;11753;43.144;24.714;2023-04-04T03:00:12;98269.69;;;10.60;100.00
23170;BME280;11753;43.144;24.714;2023-04-04T03:01:13;98270.94;;;10.64;100.00
23170;BME280;11753;43.144;24.714;2023-04-04T03:02:14;98262.44;;;10.62;100.00
23170;BME280;11753;43.144;24.714;2023-04-04T03:03:14;98268.53;;;10.47;100.00
23170;BME280;11753;43.144;24.714;2023-04-04T03:04:15;98266.09;;;10.46;100.00
23170;BME280;11753;43.144;24.714;2023-04-04T03:05:19;98266.53;;;10.50;100.00
23170;BME280;11753;43.144;24.714;2023-04-04T03:06:19;98266.81;;;10.55;100.00
23170;BME280;11753;43.144;24.714;2023-04-04T03:07:20;98266.06;;;10.61;100.00
23170;BME280;11753;43.144;24.714;2023-04-04T03:08:22;98263.16;;;10.56;100.00
23170;BME280;11753;43.144;24.714;2023-04-04T03:09:22;98269.25;;;10.56;100.00
23170;BME280;11753;43.144;24.714;2023-04-04T03:10:24;98272.94;;;10.62;100.00
23170;BME280;11753;43.144;24.714;2023-04-04T03:11:26;98261.06;;;10.66;100.00
23170;BME280;11753;43.144;24.714;2023-04-04T03:12:26;98261.50;;;10.69;100.00
23170;BME280;11753;43.144;24.714;2023-04-04T03:13:27;98257.44;;;10.67;100.00
23170;BME280;11753;43.144;24.714;2023-04-04T03:14:27;98262.44;;;10.62;100.00
23170;BME280;11753;43.144;24.714;2023-04-04T03:15:29;98254.41;;;10.70;100.00
23170;BME280;11753;43.144;24.714;2023-04-04T03:16:31;98253.16;;;10.66;100.00
23170;BME280;11753;43.144;24.714;2023-04-04T03:17:32;98249.88;;;10.64;100.00
23170;BME280;11753;43.144;24.714;2023-04-04T03:18:33;98246.50;;;10.70;100.00
23170;BME280;11753;43.144;24.714;2023-04-04T03:19:34;98246.78;;;10.75;100.00
23170;BME280;11753;43.144;24.714;2023-04-04T03:20:35;98242.19;;;10.62;100.00
23170;BME280;11753;43.144;24.714;2023-04-04T03:21:36;98249.16;;;10.70;100.00
23170;BME280;11753;43.144;24.714;2023-04-04T03:22:38;98245.00;;;10.61;100.00
23170;BME280;11753;43.144;24.714;2023-04-04T03:23:39;98235.75;;;10.65;100.00
23170;BME280;11753;43.144;24.714;2023-04-04T03:24:42;98240.00;;;10.66;100.00
23170;BME280;11753;43.144;24.714;2023-04-04T03:25:42;98236.38;;;10.67;100.00
23170;BME280;11753;43.144;24.714;2023-04-04T03:26:43;98242.06;;;10.70;100.00
23170;BME280;11753;43.144;24.714;2023-04-04T03:27:44;98235.38;;;10.68;100.00
23170;BME280;11753;43.144;24.714;2023-04-04T03:28:44;98238.13;;;10.60;100.00
23170;BME280;11753;43.144;24.714;2023-04-04T03:29:46;98233.13;;;10.65;100.00
23170;BME280;11753;43.144;24.714;2023-04-04T03:30:47;98242.03;;;10.49;100.00
23170;BME280;11753;43.144;24.714;2023-04-04T03:31:51;98246.25;;;10.43;100.00
23170;BME280;11753;43.144;24.714;2023-04-04T03:32:52;98238.09;;;10.38;100.00
23170;BME280;11753;43.144;24.714;2023-04-04T03:33:53;98252.38;;;10.29;100.00
23170;BME280;11753;43.144;24.714;2023-04-04T03:34:54;98243.72;;;10.20;100.00
23170;BME280;11753;43.144;24.714;2023-04-04T03:35:55;98246.53;;;10.04;100.00
23170;BME280;11753;43.144;24.714;2023-04-04T03:36:56;98245.72;;;10.04;100.00
23170;BME280;11753;43.144;24.714;2023-04-04T03:38:00;98241.91;;;10.06;100.00
23170;BME280;11753;43.144;24.714;2023-04-04T03:39:01;98241.09;;;10.06;100.00
23170;BME280;11753;43.144;24.714;2023-04-04T03:40:02;98246.13;;;10.01;100.00
23170;BME280;11753;43.144;24.714;2023-04-04T03:41:04;98254.44;;;10.04;100.00
23170;BME280;11753;43.144;24.714;2023-04-04T03:42:05;98244.00;;;10.11;100.00
23170;BME280;11753;43.144;24.714;2023-04-04T03:43:06;98256.53;;;10.24;100.00
23170;BME280;11753;43.144;24.714;2023-04-04T03:44:07;98259.16;;;10.24;100.00
23170;BME280;11753;43.144;24.714;2023-04-04T03:45:08;98265.03;;;10.26;100.00
23170;BME280;11753;43.144;24.714;2023-04-04T03:46:09;98260.88;;;10.31;100.00
23170;BME280;11753;43.144;24.714;2023-04-04T03:47:10;98266.13;;;10.31;100.00
23170;BME280;11753;43.144;24.714;2023-04-04T03:48:11;98269.47;;;10.40;100.00
23170;BME280;11753;43.144;24.714;2023-04-04T03:49:12;98273.91;;;10.39;100.00
23170;BME280;11753;43.144;24.714;2023-04-04T03:50:14;98269.66;;;10.38;100.00
23170;BME280;11753;43.144;24.714;2023-04-04T03:51:22;98271.66;;;10.36;100.00
23170;BME280;11753;43.144;24.714;2023-04-04T03:52:23;98277.56;;;10.38;100.00
23170;BME280;11753;43.144;24.714;2023-04-04T03:53:24;98273.81;;;10.47;100.00
23170;BME280;11753;43.144;24.714;2023-04-04T03:54:27;98279.19;;;10.39;100.00
23170;BME280;11753;43.144;24.714;2023-04-04T03:55:28;98277.16;;;10.41;100.00
23170;BME280;11753;43.144;24.714;2023-04-04T03:56:30;98294.75;;;10.56;100.00
23170;BME280;11753;43.144;24.714;2023-04-04T03:57:32;98290.13;;;10.58;100.00
23170;BME280;11753;43.144;24.714;2023-04-04T03:58:34;98289.31;;;10.42;100.00
23170;BME280;11753;43.144;24.714;2023-04-04T03:59:35;98288.06;;;10.38;100.00
23170;BME280;11753;43.144;24.714;2023-04-04T04:00:36;98286.25;;;10.39;100.00
23170;BME280;11753;43.144;24.714;2023-04-04T04:01:37;98290.16;;;10.43;100.00
23170;BME280;11753;43.144;24.714;2023-04-04T04:02:38;98293.69;;;10.35;100.00
23170;BME280;11753;43.144;24.714;2023-04-04T04:03:40;98284.53;;;10.31;100.00
23170;BME280;11753;43.144;24.714;2023-04-04T04:04:41;98281.72;;;10.18;100.00
23170;BME280;11753;43.144;24.714;2023-04-04T04:05:42;98281.63;;;10.26;100.00
23170;BME280;11753;43.144;24.714;2023-04-04T04:06:43;98269.69;;;10.24;100.00
23170;BME280;11753;43.144;24.714;2023-04-04T04:07:44;98278.81;;;10.13;100.00
23170;BME280;11753;43.144;24.714;2023-04-04T04:08:46;98289.53;;;10.26;100.00
23170;BME280;11753;43.144;24.714;2023-04-04T04:09:47;98282.66;;;10.25;100.00
23170;BME280;11753;43.144;24.714;2023-04-04T04:10:48;98281.44;;;10.28;100.00
23170;BME280;11753;43.144;24.714;2023-04-04T04:11:49;98288.72;;;10.26;100.00
23170;BME280;11753;43.144;24.714;2023-04-04T04:12:49;98281.34;;;10.21;100.00
23170;BME280;11753;43.144;24.714;2023-04-04T04:13:50;98285.47;;;10.24;100.00
23170;BME280;11753;43.144;24.714;2023-04-04T04:14:51;98283.53;;;10.32;100.00
23170;BME280;11753;43.144;24.714;2023-04-04T04:15:53;98294.06;;;10.32;100.00
23170;BME280;11753;43.144;24.714;2023-04-04T04:16:54;98299.22;;;10.40;100.00
23170;BME280;11753;43.144;24.714;2023-04-04T04:17:55;98298.94;;;10.35;100.00
23170;BME280;11753;43.144;24.714;2023-04-04T04:18:56;98299.50;;;10.16;100.00
23170;BME280;11753;43.144;24.714;2023-04-04T04:19:57;98305.75;;;10.15;100.00
23170;BME280;11753;43.144;24.714;2023-04-04T04:20:58;98301.47;;;10.14;100.00
23170;BME280;11753;43.144;24.714;2023-04-04T04:22:01;98298.59;;;10.09;100.00
23170;BME280;11753;43.144;24.714;2023-04-04T04:23:02;98305.69;;;10.23;100.00
23170;BME280;11753;43.144;24.714;2023-04-04T04:24:03;98311.75;;;10.24;100.00
23170;BME280;11753;43.144;24.714;2023-04-04T04:25:04;98311.84;;;10.30;100.00
23170;BME280;11753;43.144;24.714;2023-04-04T04:26:05;98311.91;;;10.22;100.00
23170;BME280;11753;43.144;24.714;2023-04-04T04:27:06;98319.63;;;10.09;100.00
23170;BME280;11753;43.144;24.714;2023-04-04T04:28:07;98315.19;;;10.09;100.00
23170;BME280;11753;43.144;24.714;2023-04-04T04:29:07;98308.91;;;10.10;100.00
23170;BME280;11753;43.144;24.714;2023-04-04T04:30:08;98316.28;;;10.15;100.00
23170;BME280;11753;43.144;24.714;2023-04-04T04:31:09;98319.25;;;10.12;100.00
23170;BME280;11753;43.144;24.714;2023-04-04T04:32:15;98318.25;;;10.13;100.00
23170;BME280;11753;43.144;24.714;2023-04-04T04:33:17;98317.03;;;10.24;100.00
23170;BME280;11753;43.144;24.714;2023-04-04T04:34:18;98320.53;;;10.16;100.00
23170;BME280;11753;43.144;24.714;2023-04-04T04:35:19;98316.53;;;10.20;100.00
23170;BME280;11753;43.144;24.714;2023-04-04T04:36:20;98329.03;;;10.18;100.00
23170;BME280;11753;43.144;24.714;2023-04-04T04:37:21;98321.47;;;10.23;100.00
23170;BME280;11753;43.144;24.714;2023-04-04T04:38:23;98335.31;;;10.17;100.00
23170;BME280;11753;43.144;24.714;2023-04-04T04:39:24;98329.66;;;10.20;100.00
23170;BME280;11753;43.144;24.714;2023-04-04T04:40:25;98325.81;;;10.31;100.00
23170;BME280;11753;43.144;24.714;2023-04-04T04:41:25;98337.34;;;10.30;100.00
23170;BME280;11753;43.144;24.714;2023-04-04T04:42:27;98332.59;;;10.40;100.00
23170;BME280;11753;43.144;24.714;2023-04-04T04:43:28;98342.03;;;10.34;100.00
23170;BME280;11753;43.144;24.714;2023-04-04T04:44:29;98332.31;;;10.20;100.00
23170;BME280;11753;43.144;24.714;2023-04-04T04:45:30;98337.25;;;10.23;100.00
23170;BME280;11753;43.144;24.714;2023-04-04T04:46:31;98342.38;;;10.02;100.00
23170;BME280;11753;43.144;24.714;2023-04-04T04:47:32;98344.09;;;9.95;100.00
23170;BME280;11753;43.144;24.714;2023-04-04T04:48:33;98336.75;;;9.90;100.00
23170;BME280;11753;43.144;24.714;2023-04-04T04:49:34;98341.06;;;9.83;100.00
23170;BME280;11753;43.144;24.714;2023-04-04T04:50:35;98347.03;;;9.77;100.00
23170;BME280;11753;43.144;24.714;2023-04-04T04:51:36;98356.19;;;9.66;100.00
23170;BME280;11753;43.144;24.714;2023-04-04T04:52:38;98357.19;;;9.65;100.00
23170;BME280;11753;43.144;24.714;2023-04-04T04:53:40;98352.78;;;9.80;100.00
23170;BME280;11753;43.144;24.714;2023-04-04T04:54:41;98353.22;;;9.84;100.00
23170;BME280;11753;43.144;24.714;2023-04-04T04:55:44;98355.75;;;9.77;100.00
23170;BME280;11753;43.144;24.714;2023-04-04T04:56:46;98347.91;;;9.54;100.00
23170;BME280;11753;43.144;24.714;2023-04-04T04:57:46;98365.78;;;9.59;100.00
23170;BME280;11753;43.144;24.714;2023-04-04T04:58:47;98359.81;;;9.65;100.00
23170;BME280;11753;43.144;24.714;2023-04-04T04:59:50;98362.03;;;9.53;100.00
23170;BME280;11753;43.144;24.714;2023-04-04T05:00:54;98369.19;;;9.45;100.00
23170;BME280;11753;43.144;24.714;2023-04-04T05:01:57;98373.00;;;9.34;100.00
23170;BME280;11753;43.144;24.714;2023-04-04T05:02:58;98371.91;;;9.28;100.00
23170;BME280;11753;43.144;24.714;2023-04-04T05:04:02;98377.22;;;9.20;100.00
23170;BME280;11753;43.144;24.714;2023-04-04T05:05:03;98381.66;;;9.20;100.00
23170;BME280;11753;43.144;24.714;2023-04-04T05:06:04;98380.88;;;9.11;100.00
23170;BME280;11753;43.144;24.714;2023-04-04T05:07:06;98381.28;;;9.00;100.00
23170;BME280;11753;43.144;24.714;2023-04-04T05:08:07;98382.94;;;9.01;100.00
23170;BME280;11753;43.144;24.714;2023-04-04T05:09:08;98384.59;;;8.94;100.00
23170;BME280;11753;43.144;24.714;2023-04-04T05:10:09;98387.69;;;8.97;100.00
23170;BME280;11753;43.144;24.714;2023-04-04T05:11:10;98389.00;;;9.01;100.00
23170;BME280;11753;43.144;24.714;2023-04-04T05:12:11;98394.38;;;9.08;100.00
23170;BME280;11753;43.144;24.714;2023-04-04T05:13:11;98390.81;;;8.93;100.00
23170;BME280;11753;43.144;24.714;2023-04-04T05:14:13;98387.00;;;8.72;100.00
23170;BME280;11753;43.144;24.714;2023-04-04T05:15:14;98386.84;;;8.74;100.00
23170;BME280;11753;43.144;24.714;2023-04-04T05:16:15;98383.72;;;8.70;100.00
23170;BME280;11753;43.144;24.714;2023-04-04T05:17:17;98396.84;;;8.70;100.00
23170;BME280;11753;43.144;24.714;2023-04-04T05:18:18;98392.63;;;8.61;100.00
23170;BME280;11753;43.144;24.714;2023-04-04T05:19:18;98393.66;;;8.52;100.00
23170;BME280;11753;43.144;24.714;2023-04-04T05:20:19;98399.91;;;8.26;100.00